< Typhoon 197510 1975 Season Typhoon 197512 >
Typhoon 197511 (ALICE)
General InformationTrack Information on Google Maps || Disaster Info.ResourceGoogle EarthGE AnimationAtom FeedGeoJSON
Detalied Best Track (Time Zone = UTC)
Year Month Day Hour Lat. Long. Pressure (hPa) Wind (kt) Class Image Chart
1975 9 15 06 11.0 131.9 1006 0 2 -- Chart
1975 9 15 12 12.1 131.0 1006 0 2 -- Chart
1975 9 15 18 12.9 130.2 1004 0 2 -- Chart
1975 9 16 00 13.4 129.2 1004 0 2 -- Chart
1975 9 16 06 13.8 128.3 1000 0 9 -- Chart
1975 9 16 12 14.0 127.3 1000 0 9 -- Chart
1975 9 16 18 14.3 126.3 1000 0 9 -- Chart
1975 9 17 00 14.7 125.3 994 0 9 -- Chart
1975 9 17 06 15.0 124.4 980 0 9 -- Chart
1975 9 17 12 15.3 123.2 970 0 9 -- Chart
1975 9 17 18 15.8 121.8 970 0 9 -- Chart
1975 9 18 00 16.6 120.0 985 0 9 -- Chart
1975 9 18 06 16.7 118.8 985 0 9 -- Chart
1975 9 18 12 16.8 117.3 985 0 9 -- Chart
1975 9 18 18 16.8 115.7 985 0 9 -- Chart
1975 9 19 00 17.1 114.5 985 0 9 -- Chart
1975 9 19 06 17.6 113.0 985 0 9 -- Chart
1975 9 19 12 18.2 111.5 985 0 9 -- Chart
1975 9 19 18 18.7 110.2 988 0 9 -- Chart
1975 9 20 00 19.0 109.0 988 0 9 -- Chart
1975 9 20 06 19.5 107.5 988 0 9 -- Chart
1975 9 20 12 19.4 106.0 994 0 9 -- Chart
1975 9 20 18 19.2 104.5 996 0 2 -- Chart
1975 9 21 00 19.0 103.0 1000 0 2 -- Chart
1975 9 21 06 20.0 100.0 1004 0 2 -- Chart
1975 9 21 12 20.0 98.0 1004 0 2 -- Chart
Japan Meteorological Agency Best Track Data | Correction Date : 1990-10-17
< Typhoon 197510 1975 Season Typhoon 197512 >

Help